KHAI/HAI METAR and TAF weather

Enter ICAO airport designator
Station Type Date Time Source
KHAI METAR 2020/09/22 06:35 UTC NOAA

KHAI 220635Z AUTO 00000KT 10SM CLR 08/07 A3029 RMK AO2 T00840071


Station Type Date Time Source
KHAI Decoded METAR 2020/09/22 06:35 UTC NOAA

Station name not available
Sep 22, 2020 - 02:35 AM EDT / 2020.09.22 0635 UTC
Wind: Calm:0
Visibility: 10 mile(s):0
Sky conditions: clear
Temperature: 47.1 F (8.4 C)
Dew Point: 44.8 F (7.1 C)
Relative Humidity: 91%
Pressure (altimeter): 30.29 in. Hg (1025 hPa)
ob: KHAI 220635Z AUTO 00000KT 10SM CLR 08/07 A3029 RMK AO2 T00840071
cycle: 6

Station Type Date Time Source
KHAI TAF UTC NOAA

Error!

Example: see airport list